Terminal Aerodrome Forecast
Issued by NWS Wichita, KS

Home | Current Version | Previous Version | Graphics & Text | Print | Product List | Glossary On
Versions: 1 2 3 4 5 6 7 8 9 10 11 12 13 14 15 16 17 18
000
FTUS43 KICT 140522
TAFICT
TAF
KICT 140522Z 1406/1506 02008KT P6SM SCT035 SCT100
     FM140900 18006KT P6SM VCTS BKN035 OVC090CB
     FM141300 17010KT P6SM BKN100
     FM141800 19016G24KT P6SM VCSH BKN090
     FM142300 25015G24KT P6SM VCTS BKN090CB
     FM150300 35028G37KT P6SM VCSH BKN090=

USA.gov is the U.S. government's official web portal to all federal, state and local government web resources and services.